sensor_id;sensor_type;location;lat;lon;timestamp;temperature;humidity
23715;DHT22;12036;50.858;4.472;2023-02-23T00:00:29;9.30;99.90
23715;DHT22;12036;50.858;4.472;2023-02-23T00:02:58;9.20;99.90
23715;DHT22;12036;50.858;4.472;2023-02-23T00:05:30;9.30;99.90
23715;DHT22;12036;50.858;4.472;2023-02-23T00:07:56;9.30;99.90
23715;DHT22;12036;50.858;4.472;2023-02-23T00:10:22;9.30;99.90
23715;DHT22;12036;50.858;4.472;2023-02-23T00:12:56;9.40;99.90
23715;DHT22;12036;50.858;4.472;2023-02-23T00:15:23;9.40;99.90
23715;DHT22;12036;50.858;4.472;2023-02-23T00:17:57;9.40;99.90
23715;DHT22;12036;50.858;4.472;2023-02-23T00:39:44;9.30;99.90
23715;DHT22;12036;50.858;4.472;2023-02-23T00:42:11;9.30;99.90
23715;DHT22;12036;50.858;4.472;2023-02-23T00:44:38;9.30;99.90
23715;DHT22;12036;50.858;4.472;2023-02-23T00:47:05;9.40;99.90
23715;DHT22;12036;50.858;4.472;2023-02-23T00:49:31;9.40;99.90
23715;DHT22;12036;50.858;4.472;2023-02-23T00:51:58;9.40;99.90
23715;DHT22;12036;50.858;4.472;2023-02-23T00:54:24;9.40;99.90
23715;DHT22;12036;50.858;4.472;2023-02-23T00:56:49;9.40;99.90
23715;DHT22;12036;50.858;4.472;2023-02-23T00:59:16;9.40;99.90
23715;DHT22;12036;50.858;4.472;2023-02-23T01:01:42;9.40;99.90
23715;DHT22;12036;50.858;4.472;2023-02-23T01:04:09;9.40;99.90
23715;DHT22;12036;50.858;4.472;2023-02-23T01:06:35;9.40;99.90
23715;DHT22;12036;50.858;4.472;2023-02-23T01:09:09;9.40;99.90
23715;DHT22;12036;50.858;4.472;2023-02-23T01:11:35;9.30;99.90
23715;DHT22;12036;50.858;4.472;2023-02-23T01:14:01;9.40;99.90
23715;DHT22;12036;50.858;4.472;2023-02-23T01:16:30;9.40;99.90
23715;DHT22;12036;50.858;4.472;2023-02-23T01:18:58;9.30;99.90
23715;DHT22;12036;50.858;4.472;2023-02-23T01:21:30;9.30;99.90
23715;DHT22;12036;50.858;4.472;2023-02-23T01:23:57;9.30;99.90
23715;DHT22;12036;50.858;4.472;2023-02-23T01:26:23;9.30;99.90
23715;DHT22;12036;50.858;4.472;2023-02-23T01:28:50;9.30;99.90
23715;DHT22;12036;50.858;4.472;2023-02-23T01:31:17;9.30;99.90
23715;DHT22;12036;50.858;4.472;2023-02-23T01:33:43;9.30;99.90
23715;DHT22;12036;50.858;4.472;2023-02-23T01:36:08;9.30;99.90
23715;DHT22;12036;50.858;4.472;2023-02-23T01:38:34;9.30;99.90
23715;DHT22;12036;50.858;4.472;2023-02-23T01:41:00;9.20;99.90
23715;DHT22;12036;50.858;4.472;2023-02-23T01:43:26;9.20;99.90
23715;DHT22;12036;50.858;4.472;2023-02-23T01:45:57;9.20;99.90
23715;DHT22;12036;50.858;4.472;2023-02-23T01:48:29;9.20;99.90
23715;DHT22;12036;50.858;4.472;2023-02-23T01:51:13;9.20;99.90
23715;DHT22;12036;50.858;4.472;2023-02-23T01:53:46;9.20;99.90
23715;DHT22;12036;50.858;4.472;2023-02-23T01:56:23;9.20;99.90
23715;DHT22;12036;50.858;4.472;2023-02-23T01:58:52;9.20;99.90
23715;DHT22;12036;50.858;4.472;2023-02-23T02:01:20;9.20;99.90
23715;DHT22;12036;50.858;4.472;2023-02-23T02:04:10;9.20;99.90
23715;DHT22;12036;50.858;4.472;2023-02-23T02:06:37;9.20;99.90
23715;DHT22;12036;50.858;4.472;2023-02-23T02:09:07;9.20;99.90
23715;DHT22;12036;50.858;4.472;2023-02-23T02:11:35;9.20;99.90
23715;DHT22;12036;50.858;4.472;2023-02-23T02:14:06;9.20;99.90
23715;DHT22;12036;50.858;4.472;2023-02-23T02:38:27;9.20;99.90
23715;DHT22;12036;50.858;4.472;2023-02-23T02:41:10;9.10;99.90
23715;DHT22;12036;50.858;4.472;2023-02-23T02:43:55;9.10;99.90
23715;DHT22;12036;50.858;4.472;2023-02-23T02:46:28;9.10;99.90
23715;DHT22;12036;50.858;4.472;2023-02-23T02:51:27;9.10;99.90
23715;DHT22;12036;50.858;4.472;2023-02-23T02:54:08;9.10;99.90
23715;DHT22;12036;50.858;4.472;2023-02-23T02:56:37;9.10;99.90
23715;DHT22;12036;50.858;4.472;2023-02-23T02:59:31;9.10;99.90
23715;DHT22;12036;50.858;4.472;2023-02-23T03:02:25;9.10;99.90
23715;DHT22;12036;50.858;4.472;2023-02-23T03:05:17;9.10;99.90
23715;DHT22;12036;50.858;4.472;2023-02-23T03:08:32;9.10;99.90
23715;DHT22;12036;50.858;4.472;2023-02-23T03:11:18;9.10;99.90
23715;DHT22;12036;50.858;4.472;2023-02-23T03:26:35;9.10;99.90
23715;DHT22;12036;50.858;4.472;2023-02-23T03:29:31;9.00;99.90
23715;DHT22;12036;50.858;4.472;2023-02-23T03:35:53;9.00;99.90
23715;DHT22;12036;50.858;4.472;2023-02-23T03:38:42;9.00;99.90
23715;DHT22;12036;50.858;4.472;2023-02-23T03:41:26;9.00;99.90
23715;DHT22;12036;50.858;4.472;2023-02-23T03:44:31;9.00;99.90
23715;DHT22;12036;50.858;4.472;2023-02-23T03:47:20;9.00;99.90
23715;DHT22;12036;50.858;4.472;2023-02-23T03:50:09;9.00;99.90
23715;DHT22;12036;50.858;4.472;2023-02-23T03:52:57;9.00;99.90
23715;DHT22;12036;50.858;4.472;2023-02-23T03:55:46;9.00;99.90
23715;DHT22;12036;50.858;4.472;2023-02-23T03:58:38;9.00;99.90
23715;DHT22;12036;50.858;4.472;2023-02-23T04:01:24;8.90;99.90
23715;DHT22;12036;50.858;4.472;2023-02-23T04:04:10;9.00;99.90
23715;DHT22;12036;50.858;4.472;2023-02-23T04:06:57;9.00;99.90
23715;DHT22;12036;50.858;4.472;2023-02-23T04:09:42;9.00;99.90
23715;DHT22;12036;50.858;4.472;2023-02-23T04:12:37;9.00;99.90
23715;DHT22;12036;50.858;4.472;2023-02-23T04:17:52;9.00;99.90
23715;DHT22;12036;50.858;4.472;2023-02-23T04:20:19;9.00;99.90
23715;DHT22;12036;50.858;4.472;2023-02-23T04:22:44;9.00;99.90
23715;DHT22;12036;50.858;4.472;2023-02-23T04:25:10;9.00;99.90
23715;DHT22;12036;50.858;4.472;2023-02-23T04:27:37;8.90;99.90
23715;DHT22;12036;50.858;4.472;2023-02-23T04:30:04;8.90;99.90
23715;DHT22;12036;50.858;4.472;2023-02-23T04:32:30;8.90;99.90
23715;DHT22;12036;50.858;4.472;2023-02-23T04:34:56;8.90;99.90
23715;DHT22;12036;50.858;4.472;2023-02-23T04:37:21;8.80;99.90
23715;DHT22;12036;50.858;4.472;2023-02-23T04:39:47;8.80;99.90
23715;DHT22;12036;50.858;4.472;2023-02-23T04:42:15;8.80;99.90
23715;DHT22;12036;50.858;4.472;2023-02-23T04:44:41;8.70;99.90
23715;DHT22;12036;50.858;4.472;2023-02-23T04:47:07;8.70;99.90
23715;DHT22;12036;50.858;4.472;2023-02-23T04:49:32;8.80;99.90
23715;DHT22;12036;50.858;4.472;2023-02-23T04:51:58;8.80;99.90
23715;DHT22;12036;50.858;4.472;2023-02-23T04:54:24;8.80;99.90
23715;DHT22;12036;50.858;4.472;2023-02-23T04:56:50;8.70;99.90
23715;DHT22;12036;50.858;4.472;2023-02-23T04:59:15;8.80;99.90
23715;DHT22;12036;50.858;4.472;2023-02-23T05:01:41;8.70;99.90
23715;DHT22;12036;50.858;4.472;2023-02-23T05:04:07;8.70;99.90
23715;DHT22;12036;50.858;4.472;2023-02-23T05:06:32;8.70;99.90
23715;DHT22;12036;50.858;4.472;2023-02-23T05:08:58;8.80;99.90
23715;DHT22;12036;50.858;4.472;2023-02-23T05:11:24;8.80;99.90
23715;DHT22;12036;50.858;4.472;2023-02-23T05:13:52;8.80;99.90
23715;DHT22;12036;50.858;4.472;2023-02-23T05:16:19;8.80;99.90
23715;DHT22;12036;50.858;4.472;2023-02-23T05:18:44;8.80;99.90
23715;DHT22;12036;50.858;4.472;2023-02-23T05:21:10;8.80;99.90
23715;DHT22;12036;50.858;4.472;2023-02-23T05:23:36;8.90;99.90
23715;DHT22;12036;50.858;4.472;2023-02-23T05:26:08;8.80;99.90
23715;DHT22;12036;50.858;4.472;2023-02-23T05:28:35;8.80;99.90
23715;DHT22;12036;50.858;4.472;2023-02-23T05:31:02;8.80;99.90
23715;DHT22;12036;50.858;4.472;2023-02-23T05:33:29;8.90;99.90
23715;DHT22;12036;50.858;4.472;2023-02-23T05:35:56;8.90;99.90
23715;DHT22;12036;50.858;4.472;2023-02-23T05:38:22;8.90;99.90
23715;DHT22;12036;50.858;4.472;2023-02-23T05:40:48;8.90;99.90
23715;DHT22;12036;50.858;4.472;2023-02-23T05:43:14;8.80;99.90
23715;DHT22;12036;50.858;4.472;2023-02-23T05:45:40;8.80;99.90
23715;DHT22;12036;50.858;4.472;2023-02-23T05:48:07;8.80;99.90
23715;DHT22;12036;50.858;4.472;2023-02-23T05:50:33;8.80;99.90
23715;DHT22;12036;50.858;4.472;2023-02-23T05:52:59;8.80;99.90
23715;DHT22;12036;50.858;4.472;2023-02-23T05:55:25;8.80;99.90
23715;DHT22;12036;50.858;4.472;2023-02-23T05:57:51;8.80;99.90
23715;DHT22;12036;50.858;4.472;2023-02-23T06:00:17;8.80;99.90
23715;DHT22;12036;50.858;4.472;2023-02-23T06:02:43;8.90;99.90
23715;DHT22;12036;50.858;4.472;2023-02-23T06:05:10;8.90;99.90
23715;DHT22;12036;50.858;4.472;2023-02-23T06:07:36;8.90;99.90
23715;DHT22;12036;50.858;4.472;2023-02-23T06:10:02;8.80;99.90
23715;DHT22;12036;50.858;4.472;2023-02-23T06:12:28;8.90;99.90
23715;DHT22;12036;50.858;4.472;2023-02-23T06:14:54;8.90;99.90
23715;DHT22;12036;50.858;4.472;2023-02-23T06:17:19;8.90;99.90
23715;DHT22;12036;50.858;4.472;2023-02-23T06:19:45;8.90;99.90
23715;DHT22;12036;50.858;4.472;2023-02-23T06:22:10;8.90;99.90
23715;DHT22;12036;50.858;4.472;2023-02-23T06:24:36;8.90;99.90
23715;DHT22;12036;50.858;4.472;2023-02-23T06:27:02;8.90;99.90
23715;DHT22;12036;50.858;4.472;2023-02-23T06:29:28;8.90;99.90
23715;DHT22;12036;50.858;4.472;2023-02-23T06:31:54;8.90;99.90
23715;DHT22;12036;50.858;4.472;2023-02-23T06:34:19;8.90;99.90
23715;DHT22;12036;50.858;4.472;2023-02-23T06:36:45;8.90;99.90
23715;DHT22;12036;50.858;4.472;2023-02-23T06:39:11;9.00;99.90
23715;DHT22;12036;50.858;4.472;2023-02-23T06:41:37;8.90;99.90
23715;DHT22;12036;50.858;4.472;2023-02-23T06:44:02;9.00;99.90
23715;DHT22;12036;50.858;4.472;2023-02-23T06:46:28;8.90;99.90
23715;DHT22;12036;50.858;4.472;2023-02-23T06:48:55;8.90;99.90
23715;DHT22;12036;50.858;4.472;2023-02-23T06:51:21;9.00;99.90
23715;DHT22;12036;50.858;4.472;2023-02-23T06:53:47;8.90;99.90
23715;DHT22;12036;50.858;4.472;2023-02-23T06:56:12;8.90;99.90
23715;DHT22;12036;50.858;4.472;2023-02-23T06:58:39;8.90;99.90
23715;DHT22;12036;50.858;4.472;2023-02-23T07:01:05;8.90;99.90
23715;DHT22;12036;50.858;4.472;2023-02-23T07:03:31;8.90;99.90
23715;DHT22;12036;50.858;4.472;2023-02-23T07:05:57;8.90;99.90
23715;DHT22;12036;50.858;4.472;2023-02-23T07:08:22;8.90;99.90
23715;DHT22;12036;50.858;4.472;2023-02-23T07:10:48;9.00;99.90
23715;DHT22;12036;50.858;4.472;2023-02-23T07:13:14;9.00;99.90
23715;DHT22;12036;50.858;4.472;2023-02-23T07:15:40;9.00;99.90
23715;DHT22;12036;50.858;4.472;2023-02-23T07:18:06;9.00;99.90
23715;DHT22;12036;50.858;4.472;2023-02-23T07:20:32;9.00;99.90
23715;DHT22;12036;50.858;4.472;2023-02-23T07:22:59;9.10;99.90
23715;DHT22;12036;50.858;4.472;2023-02-23T07:25:28;9.00;99.90
23715;DHT22;12036;50.858;4.472;2023-02-23T07:27:54;9.10;99.90
23715;DHT22;12036;50.858;4.472;2023-02-23T07:30:21;9.10;99.90
23715;DHT22;12036;50.858;4.472;2023-02-23T07:32:50;9.10;99.90
23715;DHT22;12036;50.858;4.472;2023-02-23T07:35:16;9.20;99.90
23715;DHT22;12036;50.858;4.472;2023-02-23T07:37:42;9.20;99.90
23715;DHT22;12036;50.858;4.472;2023-02-23T07:40:09;9.20;99.90
23715;DHT22;12036;50.858;4.472;2023-02-23T07:42:34;9.20;99.90
23715;DHT22;12036;50.858;4.472;2023-02-23T07:45:00;9.20;99.90
23715;DHT22;12036;50.858;4.472;2023-02-23T07:47:26;9.20;99.90
23715;DHT22;12036;50.858;4.472;2023-02-23T07:49:59;9.20;99.90
23715;DHT22;12036;50.858;4.472;2023-02-23T07:52:27;9.20;99.90
23715;DHT22;12036;50.858;4.472;2023-02-23T07:54:53;9.20;99.90
23715;DHT22;12036;50.858;4.472;2023-02-23T07:57:19;9.20;99.90
23715;DHT22;12036;50.858;4.472;2023-02-23T07:59:46;9.20;99.90
23715;DHT22;12036;50.858;4.472;2023-02-23T08:02:12;9.20;99.90
23715;DHT22;12036;50.858;4.472;2023-02-23T08:04:38;9.20;99.90
23715;DHT22;12036;50.858;4.472;2023-02-23T08:07:05;9.30;99.90
23715;DHT22;12036;50.858;4.472;2023-02-23T08:09:31;9.30;99.90
23715;DHT22;12036;50.858;4.472;2023-02-23T08:12:00;9.30;99.90
23715;DHT22;12036;50.858;4.472;2023-02-23T08:14:25;9.30;99.90
23715;DHT22;12036;50.858;4.472;2023-02-23T08:16:51;9.30;99.90
23715;DHT22;12036;50.858;4.472;2023-02-23T08:19:17;9.30;99.90
23715;DHT22;12036;50.858;4.472;2023-02-23T08:21:43;9.30;99.90
23715;DHT22;12036;50.858;4.472;2023-02-23T08:24:09;9.30;99.90
23715;DHT22;12036;50.858;4.472;2023-02-23T08:26:35;9.30;99.90
23715;DHT22;12036;50.858;4.472;2023-02-23T08:29:03;9.30;99.90
23715;DHT22;12036;50.858;4.472;2023-02-23T08:31:28;9.30;99.90
23715;DHT22;12036;50.858;4.472;2023-02-23T08:33:54;9.40;99.90
23715;DHT22;12036;50.858;4.472;2023-02-23T08:36:20;9.40;99.90
23715;DHT22;12036;50.858;4.472;2023-02-23T08:38:46;9.50;99.90
23715;DHT22;12036;50.858;4.472;2023-02-23T08:41:12;9.50;99.90
23715;DHT22;12036;50.858;4.472;2023-02-23T08:43:37;9.50;99.90
23715;DHT22;12036;50.858;4.472;2023-02-23T08:46:04;9.50;99.90
23715;DHT22;12036;50.858;4.472;2023-02-23T08:48:31;9.60;99.90
23715;DHT22;12036;50.858;4.472;2023-02-23T08:50:57;9.60;99.90
23715;DHT22;12036;50.858;4.472;2023-02-23T08:53:24;9.70;99.90
23715;DHT22;12036;50.858;4.472;2023-02-23T08:55:56;9.70;99.90
23715;DHT22;12036;50.858;4.472;2023-02-23T08:58:22;9.90;99.90
23715;DHT22;12036;50.858;4.472;2023-02-23T09:00:48;9.80;99.90
23715;DHT22;12036;50.858;4.472;2023-02-23T09:03:13;9.90;99.90
23715;DHT22;12036;50.858;4.472;2023-02-23T09:05:39;10.00;99.90
23715;DHT22;12036;50.858;4.472;2023-02-23T09:08:05;9.90;99.90
23715;DHT22;12036;50.858;4.472;2023-02-23T09:10:31;9.80;99.90
23715;DHT22;12036;50.858;4.472;2023-02-23T09:12:57;9.80;99.90
23715;DHT22;12036;50.858;4.472;2023-02-23T09:15:23;9.80;99.90
23715;DHT22;12036;50.858;4.472;2023-02-23T09:17:49;9.80;99.90
23715;DHT22;12036;50.858;4.472;2023-02-23T09:20:16;9.80;99.90
23715;DHT22;12036;50.858;4.472;2023-02-23T09:22:42;9.80;99.90
23715;DHT22;12036;50.858;4.472;2023-02-23T09:25:20;9.80;99.90
23715;DHT22;12036;50.858;4.472;2023-02-23T09:27:50;9.80;99.90
23715;DHT22;12036;50.858;4.472;2023-02-23T09:30:18;9.80;99.90
23715;DHT22;12036;50.858;4.472;2023-02-23T09:32:46;9.80;99.90
23715;DHT22;12036;50.858;4.472;2023-02-23T09:35:12;9.80;99.90
23715;DHT22;12036;50.858;4.472;2023-02-23T09:37:53;9.90;99.90
23715;DHT22;12036;50.858;4.472;2023-02-23T09:40:28;9.90;99.90
23715;DHT22;12036;50.858;4.472;2023-02-23T09:43:16;10.00;99.90
23715;DHT22;12036;50.858;4.472;2023-02-23T09:45:51;10.10;99.90
23715;DHT22;12036;50.858;4.472;2023-02-23T09:48:25;10.10;99.90
23715;DHT22;12036;50.858;4.472;2023-02-23T09:50:55;10.10;99.90
23715;DHT22;12036;50.858;4.472;2023-02-23T09:56:12;10.30;99.90
23715;DHT22;12036;50.858;4.472;2023-02-23T09:58:39;10.40;99.90
23715;DHT22;12036;50.858;4.472;2023-02-23T10:04:17;10.40;99.90
23715;DHT22;12036;50.858;4.472;2023-02-23T10:07:11;10.50;99.90
23715;DHT22;12036;50.858;4.472;2023-02-23T10:15:14;10.40;99.90
23715;DHT22;12036;50.858;4.472;2023-02-23T10:23:09;10.50;99.90
23715;DHT22;12036;50.858;4.472;2023-02-23T10:25:42;10.60;99.90
23715;DHT22;12036;50.858;4.472;2023-02-23T10:28:20;10.70;99.90
23715;DHT22;12036;50.858;4.472;2023-02-23T10:30:49;10.80;99.90
23715;DHT22;12036;50.858;4.472;2023-02-23T10:35:48;11.00;99.90
23715;DHT22;12036;50.858;4.472;2023-02-23T10:38:17;11.10;99.90
23715;DHT22;12036;50.858;4.472;2023-02-23T10:40:52;11.20;99.90
23715;DHT22;12036;50.858;4.472;2023-02-23T10:43:19;11.40;99.90
23715;DHT22;12036;50.858;4.472;2023-02-23T10:45:50;11.50;99.90
23715;DHT22;12036;50.858;4.472;2023-02-23T10:48:27;11.50;99.90
23715;DHT22;12036;50.858;4.472;2023-02-23T10:50:55;11.60;99.90
23715;DHT22;12036;50.858;4.472;2023-02-23T10:53:34;11.80;99.90
23715;DHT22;12036;50.858;4.472;2023-02-23T10:56:12;11.90;99.90
23715;DHT22;12036;50.858;4.472;2023-02-23T10:58:49;11.90;99.90
23715;DHT22;12036;50.858;4.472;2023-02-23T11:01:36;11.80;99.90
23715;DHT22;12036;50.858;4.472;2023-02-23T11:04:30;11.90;99.90
23715;DHT22;12036;50.858;4.472;2023-02-23T11:07:15;11.90;99.90
23715;DHT22;12036;50.858;4.472;2023-02-23T11:09:41;11.80;99.90
23715;DHT22;12036;50.858;4.472;2023-02-23T11:12:37;11.80;99.90
23715;DHT22;12036;50.858;4.472;2023-02-23T11:17:58;11.70;99.90
23715;DHT22;12036;50.858;4.472;2023-02-23T11:20:26;11.70;99.90
23715;DHT22;12036;50.858;4.472;2023-02-23T11:22:54;11.50;99.90
23715;DHT22;12036;50.858;4.472;2023-02-23T11:25:30;11.40;99.90
23715;DHT22;12036;50.858;4.472;2023-02-23T11:27:57;11.40;99.90
23715;DHT22;12036;50.858;4.472;2023-02-23T11:30:33;11.50;99.90
23715;DHT22;12036;50.858;4.472;2023-02-23T11:33:03;11.40;99.90
23715;DHT22;12036;50.858;4.472;2023-02-23T11:35:35;11.40;99.90
23715;DHT22;12036;50.858;4.472;2023-02-23T11:38:34;11.50;99.90
23715;DHT22;12036;50.858;4.472;2023-02-23T11:41:02;11.50;99.90
23715;DHT22;12036;50.858;4.472;2023-02-23T11:43:28;11.60;99.90
23715;DHT22;12036;50.858;4.472;2023-02-23T11:45:59;11.60;99.90
23715;DHT22;12036;50.858;4.472;2023-02-23T11:48:35;11.70;99.90
23715;DHT22;12036;50.858;4.472;2023-02-23T11:51:03;11.80;99.90
23715;DHT22;12036;50.858;4.472;2023-02-23T11:53:42;11.70;99.90
23715;DHT22;12036;50.858;4.472;2023-02-23T11:56:09;11.70;99.90
23715;DHT22;12036;50.858;4.472;2023-02-23T11:58:46;11.80;99.90
23715;DHT22;12036;50.858;4.472;2023-02-23T12:01:20;11.70;99.90
23715;DHT22;12036;50.858;4.472;2023-02-23T12:03:55;11.70;99.90
23715;DHT22;12036;50.858;4.472;2023-02-23T12:09:17;11.50;99.90
23715;DHT22;12036;50.858;4.472;2023-02-23T12:11:59;11.40;99.90
23715;DHT22;12036;50.858;4.472;2023-02-23T12:14:29;11.30;99.90
23715;DHT22;12036;50.858;4.472;2023-02-23T12:17:03;11.20;99.90
23715;DHT22;12036;50.858;4.472;2023-02-23T12:19:38;11.20;99.90
23715;DHT22;12036;50.858;4.472;2023-02-23T12:22:14;11.30;99.90
23715;DHT22;12036;50.858;4.472;2023-02-23T12:24:46;11.30;99.90
23715;DHT22;12036;50.858;4.472;2023-02-23T12:27:33;11.30;99.90
23715;DHT22;12036;50.858;4.472;2023-02-23T12:32:57;11.40;99.90
23715;DHT22;12036;50.858;4.472;2023-02-23T12:35:28;11.40;99.90
23715;DHT22;12036;50.858;4.472;2023-02-23T12:38:43;11.40;99.90
23715;DHT22;12036;50.858;4.472;2023-02-23T12:41:13;11.40;99.90
23715;DHT22;12036;50.858;4.472;2023-02-23T12:49:02;11.50;99.90
23715;DHT22;12036;50.858;4.472;2023-02-23T12:51:43;11.60;99.90
23715;DHT22;12036;50.858;4.472;2023-02-23T12:54:11;11.70;99.90
23715;DHT22;12036;50.858;4.472;2023-02-23T12:57:10;11.70;99.90
23715;DHT22;12036;50.858;4.472;2023-02-23T12:59:59;11.80;99.90
23715;DHT22;12036;50.858;4.472;2023-02-23T13:03:49;11.80;99.90
23715;DHT22;12036;50.858;4.472;2023-02-23T13:11:14;11.90;99.90
23715;DHT22;12036;50.858;4.472;2023-02-23T13:14:10;12.00;99.90
23715;DHT22;12036;50.858;4.472;2023-02-23T13:16:50;12.00;99.90
23715;DHT22;12036;50.858;4.472;2023-02-23T13:19:46;12.00;99.90
23715;DHT22;12036;50.858;4.472;2023-02-23T13:22:25;12.00;99.90
23715;DHT22;12036;50.858;4.472;2023-02-23T13:24:55;12.10;99.90
23715;DHT22;12036;50.858;4.472;2023-02-23T13:27:27;12.00;99.90
23715;DHT22;12036;50.858;4.472;2023-02-23T13:29:55;12.00;99.90
23715;DHT22;12036;50.858;4.472;2023-02-23T13:32:25;11.90;99.90
23715;DHT22;12036;50.858;4.472;2023-02-23T13:34:57;11.90;99.90
23715;DHT22;12036;50.858;4.472;2023-02-23T13:37:29;11.80;99.90
23715;DHT22;12036;50.858;4.472;2023-02-23T13:40:31;11.80;99.90
23715;DHT22;12036;50.858;4.472;2023-02-23T13:43:08;11.60;99.90
23715;DHT22;12036;50.858;4.472;2023-02-23T13:51:35;11.40;99.90
23715;DHT22;12036;50.858;4.472;2023-02-23T13:54:22;11.30;99.90
23715;DHT22;12036;50.858;4.472;2023-02-23T13:56:50;11.30;99.90
23715;DHT22;12036;50.858;4.472;2023-02-23T13:59:21;11.30;99.90
23715;DHT22;12036;50.858;4.472;2023-02-23T14:01:51;11.30;99.90
23715;DHT22;12036;50.858;4.472;2023-02-23T14:04:41;11.30;99.90
23715;DHT22;12036;50.858;4.472;2023-02-23T14:07:26;11.30;99.90
23715;DHT22;12036;50.858;4.472;2023-02-23T14:09:54;11.30;99.90
23715;DHT22;12036;50.858;4.472;2023-02-23T14:12:36;11.30;99.90
23715;DHT22;12036;50.858;4.472;2023-02-23T14:23:30;11.30;99.90
23715;DHT22;12036;50.858;4.472;2023-02-23T14:26:16;11.20;99.90
23715;DHT22;12036;50.858;4.472;2023-02-23T14:28:54;11.20;99.90
23715;DHT22;12036;50.858;4.472;2023-02-23T14:31:33;11.10;99.90
23715;DHT22;12036;50.858;4.472;2023-02-23T14:34:06;11.20;99.90
23715;DHT22;12036;50.858;4.472;2023-02-23T14:36:37;11.20;99.90
23715;DHT22;12036;50.858;4.472;2023-02-23T14:39:12;11.30;99.90
23715;DHT22;12036;50.858;4.472;2023-02-23T14:41:48;11.30;99.90
23715;DHT22;12036;50.858;4.472;2023-02-23T14:44:29;11.50;99.90
23715;DHT22;12036;50.858;4.472;2023-02-23T14:47:12;11.40;99.90
23715;DHT22;12036;50.858;4.472;2023-02-23T14:49:44;11.40;99.90
23715;DHT22;12036;50.858;4.472;2023-02-23T14:54:51;11.40;99.90
23715;DHT22;12036;50.858;4.472;2023-02-23T14:59:50;11.50;99.90
23715;DHT22;12036;50.858;4.472;2023-02-23T15:02:17;11.60;99.90
23715;DHT22;12036;50.858;4.472;2023-02-23T15:04:44;11.60;99.90
23715;DHT22;12036;50.858;4.472;2023-02-23T15:07:30;11.60;99.90
23715;DHT22;12036;50.858;4.472;2023-02-23T15:09:58;11.60;99.90
23715;DHT22;12036;50.858;4.472;2023-02-23T15:12:44;11.60;99.90
23715;DHT22;12036;50.858;4.472;2023-02-23T15:15:16;11.70;99.90
23715;DHT22;12036;50.858;4.472;2023-02-23T15:17:45;11.60;99.90
23715;DHT22;12036;50.858;4.472;2023-02-23T15:20:15;11.70;99.90
23715;DHT22;12036;50.858;4.472;2023-02-23T15:22:45;11.70;99.90
23715;DHT22;12036;50.858;4.472;2023-02-23T15:25:15;11.80;99.90
23715;DHT22;12036;50.858;4.472;2023-02-23T15:27:43;11.70;99.90
23715;DHT22;12036;50.858;4.472;2023-02-23T15:30:21;11.70;99.90
23715;DHT22;12036;50.858;4.472;2023-02-23T15:32:49;11.70;99.90
23715;DHT22;12036;50.858;4.472;2023-02-23T15:35:23;11.70;99.90
23715;DHT22;12036;50.858;4.472;2023-02-23T15:37:49;11.60;99.90
23715;DHT22;12036;50.858;4.472;2023-02-23T15:40:20;11.60;99.90
23715;DHT22;12036;50.858;4.472;2023-02-23T15:43:04;11.70;99.90
23715;DHT22;12036;50.858;4.472;2023-02-23T15:45:36;11.60;99.90
23715;DHT22;12036;50.858;4.472;2023-02-23T15:48:07;11.50;99.90
23715;DHT22;12036;50.858;4.472;2023-02-23T15:50:38;11.40;99.90
23715;DHT22;12036;50.858;4.472;2023-02-23T15:53:05;11.40;99.90
23715;DHT22;12036;50.858;4.472;2023-02-23T15:55:39;11.40;99.90
23715;DHT22;12036;50.858;4.472;2023-02-23T15:58:23;11.30;99.90
23715;DHT22;12036;50.858;4.472;2023-02-23T16:00:54;11.20;99.90
23715;DHT22;12036;50.858;4.472;2023-02-23T16:03:23;11.10;99.90
23715;DHT22;12036;50.858;4.472;2023-02-23T16:06:04;11.10;99.90
23715;DHT22;12036;50.858;4.472;2023-02-23T16:08:31;11.10;99.90
23715;DHT22;12036;50.858;4.472;2023-02-23T16:11:12;11.10;99.90
23715;DHT22;12036;50.858;4.472;2023-02-23T16:13:45;11.00;99.90
23715;DHT22;12036;50.858;4.472;2023-02-23T16:16:14;11.00;99.90
23715;DHT22;12036;50.858;4.472;2023-02-23T16:18:51;11.00;99.90
23715;DHT22;12036;50.858;4.472;2023-02-23T16:21:22;11.00;99.90
23715;DHT22;12036;50.858;4.472;2023-02-23T16:23:50;10.90;99.90
23715;DHT22;12036;50.858;4.472;2023-02-23T16:26:22;10.90;99.90
23715;DHT22;12036;50.858;4.472;2023-02-23T16:28:56;10.90;99.90
23715;DHT22;12036;50.858;4.472;2023-02-23T16:31:42;10.90;99.90
23715;DHT22;12036;50.858;4.472;2023-02-23T16:34:25;10.90;99.90
23715;DHT22;12036;50.858;4.472;2023-02-23T16:36:59;10.90;99.90
23715;DHT22;12036;50.858;4.472;2023-02-23T16:39:30;10.80;99.90
23715;DHT22;12036;50.858;4.472;2023-02-23T16:41:59;10.70;99.90
23715;DHT22;12036;50.858;4.472;2023-02-23T16:44:28;10.80;99.90
23715;DHT22;12036;50.858;4.472;2023-02-23T16:47:09;10.70;99.90
23715;DHT22;12036;50.858;4.472;2023-02-23T16:49:36;10.70;99.90
23715;DHT22;12036;50.858;4.472;2023-02-23T16:52:06;10.70;99.90
23715;DHT22;12036;50.858;4.472;2023-02-23T16:54:37;10.70;99.90
23715;DHT22;12036;50.858;4.472;2023-02-23T16:57:04;10.70;99.90
23715;DHT22;12036;50.858;4.472;2023-02-23T16:59:31;10.70;99.90
23715;DHT22;12036;50.858;4.472;2023-02-23T17:01:56;10.70;99.90
23715;DHT22;12036;50.858;4.472;2023-02-23T17:04:22;10.70;99.90
23715;DHT22;12036;50.858;4.472;2023-02-23T17:06:48;10.70;99.90
23715;DHT22;12036;50.858;4.472;2023-02-23T17:09:20;10.60;99.90
23715;DHT22;12036;50.858;4.472;2023-02-23T17:11:45;10.60;99.90
23715;DHT22;12036;50.858;4.472;2023-02-23T17:14:20;10.60;99.90
23715;DHT22;12036;50.858;4.472;2023-02-23T17:16:48;10.70;99.90
23715;DHT22;12036;50.858;4.472;2023-02-23T17:19:15;10.60;99.90
23715;DHT22;12036;50.858;4.472;2023-02-23T17:21:43;10.70;99.90
23715;DHT22;12036;50.858;4.472;2023-02-23T17:24:09;10.60;99.90
23715;DHT22;12036;50.858;4.472;2023-02-23T17:26:34;10.50;99.90
23715;DHT22;12036;50.858;4.472;2023-02-23T17:29:00;10.50;99.90
23715;DHT22;12036;50.858;4.472;2023-02-23T17:31:26;10.50;99.90
23715;DHT22;12036;50.858;4.472;2023-02-23T17:33:52;10.40;99.90
23715;DHT22;12036;50.858;4.472;2023-02-23T17:36:19;10.40;99.90
23715;DHT22;12036;50.858;4.472;2023-02-23T17:38:45;10.40;99.90
23715;DHT22;12036;50.858;4.472;2023-02-23T17:41:16;10.30;99.90
23715;DHT22;12036;50.858;4.472;2023-02-23T17:43:42;10.30;99.90
23715;DHT22;12036;50.858;4.472;2023-02-23T17:46:08;10.30;99.90
23715;DHT22;12036;50.858;4.472;2023-02-23T17:48:34;10.30;99.90
23715;DHT22;12036;50.858;4.472;2023-02-23T17:51:07;10.30;99.90
23715;DHT22;12036;50.858;4.472;2023-02-23T17:53:37;10.30;99.90
23715;DHT22;12036;50.858;4.472;2023-02-23T17:56:03;10.30;99.90
23715;DHT22;12036;50.858;4.472;2023-02-23T17:58:29;10.20;99.90
23715;DHT22;12036;50.858;4.472;2023-02-23T18:00:57;10.20;99.90
23715;DHT22;12036;50.858;4.472;2023-02-23T18:03:24;10.10;99.90
23715;DHT22;12036;50.858;4.472;2023-02-23T18:06:01;10.20;99.90
23715;DHT22;12036;50.858;4.472;2023-02-23T18:08:27;10.10;99.90